sensor_id;sensor_type;location;lat;lon;timestamp;pressure;altitude;pressure_sealevel;temperature;humidity
50852;BME280;43953;45.508;-122.806;2023-02-03T00:00:19;101099.00;;;10.43;41.52
50852;BME280;43953;45.508;-122.806;2023-02-03T00:00:50;101101.50;;;10.44;41.65
50852;BME280;43953;45.508;-122.806;2023-02-03T00:01:22;101096.13;;;10.44;41.70
50852;BME280;43953;45.508;-122.806;2023-02-03T00:01:54;101099.81;;;10.43;42.05
50852;BME280;43953;45.508;-122.806;2023-02-03T00:02:26;101106.91;;;10.44;41.75
50852;BME280;43953;45.508;-122.806;2023-02-03T00:02:57;101090.75;;;10.44;41.84
50852;BME280;43953;45.508;-122.806;2023-02-03T00:03:29;101096.13;;;10.44;42.20
50852;BME280;43953;45.508;-122.806;2023-02-03T00:04:01;101092.56;;;10.44;42.34
50852;BME280;43953;45.508;-122.806;2023-02-03T00:04:33;101091.75;;;10.43;42.37
50852;BME280;43953;45.508;-122.806;2023-02-03T00:05:05;101099.81;;;10.43;42.22
50852;BME280;43953;45.508;-122.806;2023-02-03T00:05:37;101082.03;;;10.42;42.29
50852;BME280;43953;45.508;-122.806;2023-02-03T00:06:09;101084.06;;;10.40;42.37
50852;BME280;43953;45.508;-122.806;2023-02-03T00:06:41;101090.28;;;10.41;42.27
50852;BME280;43953;45.508;-122.806;2023-02-03T00:07:13;101084.06;;;10.40;42.23
50852;BME280;43953;45.508;-122.806;2023-02-03T00:07:45;101081.38;;;10.40;42.37
50852;BME280;43953;45.508;-122.806;2023-02-03T00:08:18;101082.41;;;10.39;42.36
50852;BME280;43953;45.508;-122.806;2023-02-03T00:08:54;101077.03;;;10.39;42.34
50852;BME280;43953;45.508;-122.806;2023-02-03T00:09:28;101078.69;;;10.40;42.27
50852;BME280;43953;45.508;-122.806;2023-02-03T00:10:01;101075.38;;;10.38;42.70
50852;BME280;43953;45.508;-122.806;2023-02-03T00:10:33;101075.38;;;10.38;42.92
50852;BME280;43953;45.508;-122.806;2023-02-03T00:11:06;101085.13;;;10.39;42.87
50852;BME280;43953;45.508;-122.806;2023-02-03T00:11:38;101081.38;;;10.40;42.84
50852;BME280;43953;45.508;-122.806;2023-02-03T00:12:10;101080.56;;;10.40;42.78
50852;BME280;43953;45.508;-122.806;2023-02-03T00:12:42;101078.91;;;10.39;42.78
50852;BME280;43953;45.508;-122.806;2023-02-03T00:13:14;101082.41;;;10.39;42.96
50852;BME280;43953;45.508;-122.806;2023-02-03T00:13:46;101077.03;;;10.39;43.16
50852;BME280;43953;45.508;-122.806;2023-02-03T00:14:17;101084.91;;;10.41;42.82
50852;BME280;43953;45.508;-122.806;2023-02-03T00:14:49;101088.44;;;10.41;43.29
50852;BME280;43953;45.508;-122.806;2023-02-03T00:15:21;101084.72;;;10.42;43.07
50852;BME280;43953;45.508;-122.806;2023-02-03T00:15:53;101081.38;;;10.40;43.15
50852;BME280;43953;45.508;-122.806;2023-02-03T00:16:25;101092.78;;;10.42;43.55
50852;BME280;43953;45.508;-122.806;2023-02-03T00:16:56;101084.91;;;10.41;43.43
50852;BME280;43953;45.508;-122.806;2023-02-03T00:17:28;101078.69;;;10.40;43.21
50852;BME280;43953;45.508;-122.806;2023-02-03T00:18:00;101079.50;;;10.41;43.04
50852;BME280;43953;45.508;-122.806;2023-02-03T00:18:32;101087.59;;;10.41;43.01
50852;BME280;43953;45.508;-122.806;2023-02-03T00:19:04;101083.06;;;10.41;43.06
50852;BME280;43953;45.508;-122.806;2023-02-03T00:19:35;101089.47;;;10.40;43.19
50852;BME280;43953;45.508;-122.806;2023-02-03T00:20:08;101089.47;;;10.40;43.17
50852;BME280;43953;45.508;-122.806;2023-02-03T00:20:39;101084.91;;;10.41;43.15
50852;BME280;43953;45.508;-122.806;2023-02-03T00:21:11;101085.75;;;10.41;43.61
50852;BME280;43953;45.508;-122.806;2023-02-03T00:21:45;101082.41;;;10.39;43.68
50852;BME280;43953;45.508;-122.806;2023-02-03T00:22:18;101082.41;;;10.39;43.55
50852;BME280;43953;45.508;-122.806;2023-02-03T00:22:50;101083.47;;;10.38;43.67
50852;BME280;43953;45.508;-122.806;2023-02-03T00:23:22;101085.13;;;10.39;43.68
50852;BME280;43953;45.508;-122.806;2023-02-03T00:23:54;101082.41;;;10.39;43.46
50852;BME280;43953;45.508;-122.806;2023-02-03T00:24:26;101085.13;;;10.39;43.85
50852;BME280;43953;45.508;-122.806;2023-02-03T00:24:58;101084.28;;;10.39;43.87
50852;BME280;43953;45.508;-122.806;2023-02-03T00:25:30;101079.91;;;10.38;43.84
50852;BME280;43953;45.508;-122.806;2023-02-03T00:26:06;101089.84;;;10.37;43.70
50852;BME280;43953;45.508;-122.806;2023-02-03T00:26:42;101088.19;;;10.36;43.68
50852;BME280;43953;45.508;-122.806;2023-02-03T00:27:13;101092.75;;;10.36;43.70
50852;BME280;43953;45.508;-122.806;2023-02-03T00:27:45;101094.63;;;10.35;43.74
50852;BME280;43953;45.508;-122.806;2023-02-03T00:28:17;101090.91;;;10.36;43.93
50852;BME280;43953;45.508;-122.806;2023-02-03T00:28:49;101092.75;;;10.36;43.89
50852;BME280;43953;45.508;-122.806;2023-02-03T00:29:20;101093.59;;;10.36;44.11
50852;BME280;43953;45.508;-122.806;2023-02-03T00:29:55;101096.47;;;10.35;44.13
50852;BME280;43953;45.508;-122.806;2023-02-03T00:30:27;101094.81;;;10.34;43.99
50852;BME280;43953;45.508;-122.806;2023-02-03T00:30:59;101089.44;;;10.34;43.86
50852;BME280;43953;45.508;-122.806;2023-02-03T00:31:31;101097.50;;;10.34;43.90
50852;BME280;43953;45.508;-122.806;2023-02-03T00:32:02;101095.84;;;10.33;43.90
50852;BME280;43953;45.508;-122.806;2023-02-03T00:32:34;101097.69;;;10.32;44.21
50852;BME280;43953;45.508;-122.806;2023-02-03T00:33:06;101092.31;;;10.32;44.11
50852;BME280;43953;45.508;-122.806;2023-02-03T00:33:38;101099.53;;;10.32;44.44
50852;BME280;43953;45.508;-122.806;2023-02-03T00:34:09;101098.72;;;10.31;44.20
50852;BME280;43953;45.508;-122.806;2023-02-03T00:34:41;101100.59;;;10.31;44.30
50852;BME280;43953;45.508;-122.806;2023-02-03T00:35:13;101102.47;;;10.30;44.38
50852;BME280;43953;45.508;-122.806;2023-02-03T00:35:44;101108.84;;;10.29;44.16
50852;BME280;43953;45.508;-122.806;2023-02-03T00:36:16;101107.19;;;10.28;44.29
50852;BME280;43953;45.508;-122.806;2023-02-03T00:36:48;101106.38;;;10.28;44.54
50852;BME280;43953;45.508;-122.806;2023-02-03T00:37:20;101105.53;;;10.27;44.54
50852;BME280;43953;45.508;-122.806;2023-02-03T00:37:54;101115.25;;;10.28;44.83
50852;BME280;43953;45.508;-122.806;2023-02-03T00:38:27;101099.34;;;10.27;44.65
50852;BME280;43953;45.508;-122.806;2023-02-03T00:38:59;101103.00;;;10.25;45.06
50852;BME280;43953;45.508;-122.806;2023-02-03T00:39:31;101102.19;;;10.25;44.79
50852;BME280;43953;45.508;-122.806;2023-02-03T00:40:03;101107.56;;;10.25;45.03
50852;BME280;43953;45.508;-122.806;2023-02-03T00:40:35;101108.59;;;10.24;45.00
50852;BME280;43953;45.508;-122.806;2023-02-03T00:41:07;101105.91;;;10.24;44.93
50852;BME280;43953;45.508;-122.806;2023-02-03T00:41:39;101104.22;;;10.23;44.73
50852;BME280;43953;45.508;-122.806;2023-02-03T00:42:10;101100.91;;;10.21;44.50
50852;BME280;43953;45.508;-122.806;2023-02-03T00:42:43;101103.59;;;10.21;44.27
50852;BME280;43953;45.508;-122.806;2023-02-03T00:43:14;101098.84;;;10.23;44.52
50852;BME280;43953;45.508;-122.806;2023-02-03T00:43:47;101098.84;;;10.23;44.52
50852;BME280;43953;45.508;-122.806;2023-02-03T00:44:19;101094.31;;;10.23;44.64
50852;BME280;43953;45.508;-122.806;2023-02-03T00:44:51;101094.31;;;10.23;44.99
50852;BME280;43953;45.508;-122.806;2023-02-03T00:45:22;101088.94;;;10.23;44.83
50852;BME280;43953;45.508;-122.806;2023-02-03T00:45:54;101087.25;;;10.22;44.65
50852;BME280;43953;45.508;-122.806;2023-02-03T00:46:26;101094.72;;;10.20;43.55
50852;BME280;43953;45.508;-122.806;2023-02-03T00:46:58;101096.38;;;10.21;43.71
50852;BME280;43953;45.508;-122.806;2023-02-03T00:47:30;101091.16;;;10.20;43.80
50852;BME280;43953;45.508;-122.806;2023-02-03T00:48:02;101085.78;;;10.20;43.93
50852;BME280;43953;45.508;-122.806;2023-02-03T00:48:34;101092.19;;;10.19;43.88
50852;BME280;43953;45.508;-122.806;2023-02-03T00:49:06;101095.94;;;10.18;44.02
50852;BME280;43953;45.508;-122.806;2023-02-03T00:49:38;101089.50;;;10.19;44.33
50852;BME280;43953;45.508;-122.806;2023-02-03T00:50:10;101084.31;;;10.17;44.55
50852;BME280;43953;45.508;-122.806;2023-02-03T00:50:41;101088.03;;;10.16;44.65
50852;BME280;43953;45.508;-122.806;2023-02-03T00:51:16;101084.53;;;10.16;44.84
50852;BME280;43953;45.508;-122.806;2023-02-03T00:51:47;101077.50;;;10.15;44.98
50852;BME280;43953;45.508;-122.806;2023-02-03T00:52:19;101083.69;;;10.15;44.89
50852;BME280;43953;45.508;-122.806;2023-02-03T00:52:51;101090.72;;;10.16;44.93
50852;BME280;43953;45.508;-122.806;2023-02-03T00:53:22;101087.22;;;10.16;44.61
50852;BME280;43953;45.508;-122.806;2023-02-03T00:53:55;101091.56;;;10.17;45.10
50852;BME280;43953;45.508;-122.806;2023-02-03T00:54:26;101086.81;;;10.19;44.69
50852;BME280;43953;45.508;-122.806;2023-02-03T00:54:58;101092.03;;;10.20;44.48
50852;BME280;43953;45.508;-122.806;2023-02-03T00:55:30;101090.16;;;10.21;44.42
50852;BME280;43953;45.508;-122.806;2023-02-03T00:56:01;101090.97;;;10.21;44.07
50852;BME280;43953;45.508;-122.806;2023-02-03T00:56:33;101092.63;;;10.22;44.12
50852;BME280;43953;45.508;-122.806;2023-02-03T00:57:05;101083.72;;;10.22;44.19
50852;BME280;43953;45.508;-122.806;2023-02-03T00:57:36;101089.13;;;10.22;43.92
50852;BME280;43953;45.508;-122.806;2023-02-03T00:58:08;101088.47;;;10.20;43.98
50852;BME280;43953;45.508;-122.806;2023-02-03T00:58:40;101085.78;;;10.20;44.00
50852;BME280;43953;45.508;-122.806;2023-02-03T00:59:12;101094.06;;;10.18;44.17
50852;BME280;43953;45.508;-122.806;2023-02-03T00:59:43;101086.00;;;10.18;44.17
50852;BME280;43953;45.508;-122.806;2023-02-03T01:00:16;101093.25;;;10.18;44.21
50852;BME280;43953;45.508;-122.806;2023-02-03T01:00:48;101093.41;;;10.16;44.46
50852;BME280;43953;45.508;-122.806;2023-02-03T01:01:19;101090.94;;;10.15;44.44
50852;BME280;43953;45.508;-122.806;2023-02-03T01:01:51;101090.31;;;10.13;44.52
50852;BME280;43953;45.508;-122.806;2023-02-03T01:02:24;101096.72;;;10.12;44.78
50852;BME280;43953;45.508;-122.806;2023-02-03T01:02:55;101095.03;;;10.11;44.66
50852;BME280;43953;45.508;-122.806;2023-02-03T01:03:27;101091.34;;;10.12;44.81
50852;BME280;43953;45.508;-122.806;2023-02-03T01:03:59;101096.72;;;10.12;44.84
50852;BME280;43953;45.508;-122.806;2023-02-03T01:04:30;101094.03;;;10.12;44.80
50852;BME280;43953;45.508;-122.806;2023-02-03T01:05:02;101098.38;;;10.13;44.82
50852;BME280;43953;45.508;-122.806;2023-02-03T01:05:34;101096.72;;;10.12;44.92
50852;BME280;43953;45.508;-122.806;2023-02-03T01:06:15;101096.91;;;10.10;44.95
50852;BME280;43953;45.508;-122.806;2023-02-03T01:06:47;101103.31;;;10.09;45.05
50852;BME280;43953;45.508;-122.806;2023-02-03T01:07:19;101093.56;;;10.08;44.92
50852;BME280;43953;45.508;-122.806;2023-02-03T01:07:50;101090.25;;;10.06;45.31
50852;BME280;43953;45.508;-122.806;2023-02-03T01:08:22;101089.41;;;10.06;45.13
50852;BME280;43953;45.508;-122.806;2023-02-03T01:08:54;101092.31;;;10.04;45.72
50852;BME280;43953;45.508;-122.806;2023-02-03T01:09:26;101091.47;;;10.03;45.16
50852;BME280;43953;45.508;-122.806;2023-02-03T01:09:58;101091.66;;;10.02;45.42
50852;BME280;43953;45.508;-122.806;2023-02-03T01:10:29;101094.16;;;10.03;45.56
50852;BME280;43953;45.508;-122.806;2023-02-03T01:11:06;101090.84;;;10.01;45.45
50852;BME280;43953;45.508;-122.806;2023-02-03T01:11:38;101093.53;;;10.01;45.43
50852;BME280;43953;45.508;-122.806;2023-02-03T01:12:09;101090.84;;;10.01;45.66
50852;BME280;43953;45.508;-122.806;2023-02-03T01:12:41;101096.22;;;10.01;45.54
50852;BME280;43953;45.508;-122.806;2023-02-03T01:13:13;101086.50;;;10.00;45.66
50852;BME280;43953;45.508;-122.806;2023-02-03T01:13:44;101082.97;;;10.00;45.91
50852;BME280;43953;45.508;-122.806;2023-02-03T01:14:16;101086.69;;;9.99;46.06
50852;BME280;43953;45.508;-122.806;2023-02-03T01:14:48;101088.53;;;9.98;46.29
50852;BME280;43953;45.508;-122.806;2023-02-03T01:15:20;101085.03;;;9.98;46.35
50852;BME280;43953;45.508;-122.806;2023-02-03T01:15:52;101076.75;;;9.99;46.43
50852;BME280;43953;45.508;-122.806;2023-02-03T01:16:24;101081.28;;;9.99;46.27
50852;BME280;43953;45.508;-122.806;2023-02-03T01:16:56;101078.81;;;9.97;46.12
50852;BME280;43953;45.508;-122.806;2023-02-03T01:17:27;101086.88;;;9.97;46.08
50852;BME280;43953;45.508;-122.806;2023-02-03T01:17:59;101086.25;;;9.95;46.19
50852;BME280;43953;45.508;-122.806;2023-02-03T01:18:31;101083.75;;;9.94;46.40
50852;BME280;43953;45.508;-122.806;2023-02-03T01:19:03;101093.66;;;9.93;46.17
50852;BME280;43953;45.508;-122.806;2023-02-03T01:19:35;101091.19;;;9.92;46.33
50852;BME280;43953;45.508;-122.806;2023-02-03T01:20:07;101084.13;;;9.91;46.37
50852;BME280;43953;45.508;-122.806;2023-02-03T01:20:42;101088.69;;;9.90;46.49
50852;BME280;43953;45.508;-122.806;2023-02-03T01:21:20;101084.34;;;9.89;46.83
50852;BME280;43953;45.508;-122.806;2023-02-03T01:21:52;101080.81;;;9.89;47.04
50852;BME280;43953;45.508;-122.806;2023-02-03T01:22:24;101081.66;;;9.89;46.83
50852;BME280;43953;45.508;-122.806;2023-02-03T01:22:56;101082.69;;;9.88;47.04
50852;BME280;43953;45.508;-122.806;2023-02-03T01:23:28;101078.13;;;9.89;46.86
50852;BME280;43953;45.508;-122.806;2023-02-03T01:23:59;101078.31;;;9.87;47.02
50852;BME280;43953;45.508;-122.806;2023-02-03T01:24:31;101074.63;;;9.88;46.84
50852;BME280;43953;45.508;-122.806;2023-02-03T01:25:03;101072.94;;;9.87;46.81
50852;BME280;43953;45.508;-122.806;2023-02-03T01:25:35;101079.34;;;9.86;46.91
50852;BME280;43953;45.508;-122.806;2023-02-03T01:26:09;101078.69;;;9.84;47.04
50852;BME280;43953;45.508;-122.806;2023-02-03T01:26:41;101076.41;;;9.81;47.23
50852;BME280;43953;45.508;-122.806;2023-02-03T01:27:13;101080.31;;;9.78;47.10
50852;BME280;43953;45.508;-122.806;2023-02-03T01:27:45;101075.97;;;9.77;47.03
50852;BME280;43953;45.508;-122.806;2023-02-03T01:28:16;101079.47;;;9.78;47.17
50852;BME280;43953;45.508;-122.806;2023-02-03T01:28:56;101075.97;;;9.77;47.46
50852;BME280;43953;45.508;-122.806;2023-02-03T01:29:28;101080.31;;;9.78;47.48
50852;BME280;43953;45.508;-122.806;2023-02-03T01:30:00;101079.47;;;9.78;47.65
50852;BME280;43953;45.508;-122.806;2023-02-03T01:30:32;101077.63;;;9.78;47.53
50852;BME280;43953;45.508;-122.806;2023-02-03T01:31:17;101071.41;;;9.78;47.88
50852;BME280;43953;45.508;-122.806;2023-02-03T01:31:49;101070.78;;;9.76;47.55
50852;BME280;43953;45.508;-122.806;2023-02-03T01:32:21;101069.13;;;9.75;47.64
50852;BME280;43953;45.508;-122.806;2023-02-03T01:32:53;101069.13;;;9.75;47.64
50852;BME280;43953;45.508;-122.806;2023-02-03T01:33:24;101067.25;;;9.75;47.68
50852;BME280;43953;45.508;-122.806;2023-02-03T01:33:56;101067.47;;;9.74;47.58
50852;BME280;43953;45.508;-122.806;2023-02-03T01:34:28;101066.63;;;9.73;47.69
50852;BME280;43953;45.508;-122.806;2023-02-03T01:35:00;101072.19;;;9.72;47.42
50852;BME280;43953;45.508;-122.806;2023-02-03T01:35:33;101065.78;;;9.73;47.73
50852;BME280;43953;45.508;-122.806;2023-02-03T01:36:07;101065.78;;;9.73;47.75
50852;BME280;43953;45.508;-122.806;2023-02-03T01:36:39;101064.13;;;9.72;47.82
50852;BME280;43953;45.508;-122.806;2023-02-03T01:37:11;101057.94;;;9.71;48.06
50852;BME280;43953;45.508;-122.806;2023-02-03T01:37:44;101049.84;;;9.71;47.77
50852;BME280;43953;45.508;-122.806;2023-02-03T01:38:16;101055.41;;;9.70;48.08
50852;BME280;43953;45.508;-122.806;2023-02-03T01:38:48;101051.06;;;9.69;48.05
50852;BME280;43953;45.508;-122.806;2023-02-03T01:39:20;101049.44;;;9.68;47.96
50852;BME280;43953;45.508;-122.806;2023-02-03T01:39:51;101050.44;;;9.67;47.85
50852;BME280;43953;45.508;-122.806;2023-02-03T01:40:23;101047.13;;;9.65;47.85
50852;BME280;43953;45.508;-122.806;2023-02-03T01:40:55;101044.44;;;9.65;47.93
50852;BME280;43953;45.508;-122.806;2023-02-03T01:41:30;101049.81;;;9.65;47.95
50852;BME280;43953;45.508;-122.806;2023-02-03T01:42:02;101046.47;;;9.63;47.84
50852;BME280;43953;45.508;-122.806;2023-02-03T01:42:34;101046.47;;;9.63;47.95
50852;BME280;43953;45.508;-122.806;2023-02-03T01:43:08;101042.97;;;9.62;47.92
50852;BME280;43953;45.508;-122.806;2023-02-03T01:43:42;101038.41;;;9.63;47.97
50852;BME280;43953;45.508;-122.806;2023-02-03T01:44:48;101033.44;;;9.60;47.53
50852;BME280;43953;45.508;-122.806;2023-02-03T01:45:25;101028.44;;;9.56;48.10
50852;BME280;43953;45.508;-122.806;2023-02-03T01:45:58;101026.78;;;9.55;48.42
50852;BME280;43953;45.508;-122.806;2023-02-03T01:46:43;101019.94;;;9.53;48.20
50852;BME280;43953;45.508;-122.806;2023-02-03T01:47:44;101029.66;;;9.54;48.42
50852;BME280;43953;45.508;-122.806;2023-02-03T01:48:17;101037.72;;;9.54;48.22
50852;BME280;43953;45.508;-122.806;2023-02-03T01:48:49;101038.75;;;9.53;48.38
50852;BME280;43953;45.508;-122.806;2023-02-03T01:49:26;101041.25;;;9.54;48.34
50852;BME280;43953;45.508;-122.806;2023-02-03T01:50:19;101035.03;;;9.54;48.64
50852;BME280;43953;45.508;-122.806;2023-02-03T01:50:51;101034.84;;;9.55;48.63
50852;BME280;43953;45.508;-122.806;2023-02-03T01:51:23;101027.78;;;9.54;49.17
50852;BME280;43953;45.508;-122.806;2023-02-03T01:51:55;101028.00;;;9.53;48.68
50852;BME280;43953;45.508;-122.806;2023-02-03T01:52:28;101017.44;;;9.51;48.85
50852;BME280;43953;45.508;-122.806;2023-02-03T01:53:05;101025.31;;;9.53;48.97
50852;BME280;43953;45.508;-122.806;2023-02-03T01:53:38;101022.81;;;9.51;48.97
50852;BME280;43953;45.508;-122.806;2023-02-03T01:54:23;101030.06;;;9.51;49.00
50852;BME280;43953;45.508;-122.806;2023-02-03T01:54:57;101023.84;;;9.50;49.02
50852;BME280;43953;45.508;-122.806;2023-02-03T01:55:36;101031.09;;;9.50;49.07
50852;BME280;43953;45.508;-122.806;2023-02-03T01:56:09;101023.84;;;9.50;48.95
50852;BME280;43953;45.508;-122.806;2023-02-03T01:56:44;101023.84;;;9.50;49.11
50852;BME280;43953;45.508;-122.806;2023-02-03T01:57:22;101024.84;;;9.49;49.06
50852;BME280;43953;45.508;-122.806;2023-02-03T01:58:06;101025.88;;;9.48;49.24
50852;BME280;43953;45.508;-122.806;2023-02-03T01:58:42;101020.72;;;9.47;49.21
50852;BME280;43953;45.508;-122.806;2023-02-03T01:59:16;101021.94;;;9.44;49.31
50852;BME280;43953;45.508;-122.806;2023-02-03T01:59:52;101021.28;;;9.42;49.24
50852;BME280;43953;45.508;-122.806;2023-02-03T02:00:24;101026.66;;;9.42;49.23
50852;BME280;43953;45.508;-122.806;2023-02-03T02:00:57;101023.31;;;9.40;49.13
50852;BME280;43953;45.508;-122.806;2023-02-03T02:01:30;101023.72;;;9.37;49.16
50852;BME280;43953;45.508;-122.806;2023-02-03T02:02:04;101026.63;;;9.36;49.27
50852;BME280;43953;45.508;-122.806;2023-02-03T02:02:37;101028.25;;;9.37;49.20
50852;BME280;43953;45.508;-122.806;2023-02-03T02:03:09;101027.44;;;9.36;49.35
50852;BME280;43953;45.508;-122.806;2023-02-03T02:03:54;101017.50;;;9.37;49.62
50852;BME280;43953;45.508;-122.806;2023-02-03T02:05:36;101020.59;;;9.33;49.54
50852;BME280;43953;45.508;-122.806;2023-02-03T02:06:11;101021.41;;;9.34;49.53
50852;BME280;43953;45.508;-122.806;2023-02-03T02:06:43;101021.41;;;9.34;49.72
50852;BME280;43953;45.508;-122.806;2023-02-03T02:07:18;101029.47;;;9.34;49.41
50852;BME280;43953;45.508;-122.806;2023-02-03T02:07:49;101023.09;;;9.35;49.33
50852;BME280;43953;45.508;-122.806;2023-02-03T02:08:22;101026.63;;;9.36;49.51
50852;BME280;43953;45.508;-122.806;2023-02-03T02:08:54;101021.25;;;9.36;49.69
50852;BME280;43953;45.508;-122.806;2023-02-03T02:09:28;101018.94;;;9.32;49.73
50852;BME280;43953;45.508;-122.806;2023-02-03T02:10:00;101018.94;;;9.32;49.74
50852;BME280;43953;45.508;-122.806;2023-02-03T02:10:32;101022.63;;;9.31;49.78
50852;BME280;43953;45.508;-122.806;2023-02-03T02:11:06;101021.19;;;9.29;49.81
50852;BME280;43953;45.508;-122.806;2023-02-03T02:11:38;101022.00;;;9.29;49.79
50852;BME280;43953;45.508;-122.806;2023-02-03T02:12:10;101024.69;;;9.29;49.62
50852;BME280;43953;45.508;-122.806;2023-02-03T02:12:42;101026.75;;;9.27;49.76
50852;BME280;43953;45.508;-122.806;2023-02-03T02:13:15;101029.44;;;9.27;49.92
50852;BME280;43953;45.508;-122.806;2023-02-03T02:13:50;101028.38;;;9.28;49.93
50852;BME280;43953;45.508;-122.806;2023-02-03T02:14:22;101025.25;;;9.25;49.96
50852;BME280;43953;45.508;-122.806;2023-02-03T02:14:54;101023.63;;;9.24;49.78
50852;BME280;43953;45.508;-122.806;2023-02-03T02:16:54;101019.44;;;9.21;50.28
50852;BME280;43953;45.508;-122.806;2023-02-03T02:21:55;101007.13;;;9.05;50.41
50852;BME280;43953;45.508;-122.806;2023-02-03T02:27:01;101010.09;;;8.96;50.74
50852;BME280;43953;45.508;-122.806;2023-02-03T02:34:43;101003.13;;;8.80;51.25
50852;BME280;43953;45.508;-122.806;2023-02-03T02:35:20;101000.44;;;8.80;51.09
50852;BME280;43953;45.508;-122.806;2023-02-03T02:36:06;100996.94;;;8.79;51.31
50852;BME280;43953;45.508;-122.806;2023-02-03T02:38:08;101014.03;;;8.78;51.24
50852;BME280;43953;45.508;-122.806;2023-02-03T02:41:07;101014.63;;;8.74;51.48
50852;BME280;43953;45.508;-122.806;2023-02-03T02:41:45;101021.47;;;8.76;51.54
50852;BME280;43953;45.508;-122.806;2023-02-03T02:42:36;101015.28;;;8.76;51.37
50852;BME280;43953;45.508;-122.806;2023-02-03T02:43:17;101025.16;;;8.75;51.55
50852;BME280;43953;45.508;-122.806;2023-02-03T02:44:05;101023.50;;;8.74;51.64
50852;BME280;43953;45.508;-122.806;2023-02-03T02:44:50;101021.03;;;8.73;51.85
50852;BME280;43953;45.508;-122.806;2023-02-03T02:46:40;101010.66;;;8.70;51.69
50852;BME280;43953;45.508;-122.806;2023-02-03T02:47:18;101010.66;;;8.70;51.59
50852;BME280;43953;45.508;-122.806;2023-02-03T02:47:53;100996.22;;;8.71;51.52
50852;BME280;43953;45.508;-122.806;2023-02-03T02:50:19;100980.09;;;8.71;51.75
50852;BME280;43953;45.508;-122.806;2023-02-03T02:50:55;100980.94;;;8.71;51.71
50852;BME280;43953;45.508;-122.806;2023-02-03T02:51:29;100974.75;;;8.71;51.76
50852;BME280;43953;45.508;-122.806;2023-02-03T02:52:03;100965.03;;;8.70;51.68
50852;BME280;43953;45.508;-122.806;2023-02-03T02:52:39;100969.53;;;8.69;51.51
50852;BME280;43953;45.508;-122.806;2023-02-03T02:53:13;100967.91;;;8.68;51.60
50852;BME280;43953;45.508;-122.806;2023-02-03T02:53:49;100972.44;;;8.68;51.75
50852;BME280;43953;45.508;-122.806;2023-02-03T02:54:23;100978.81;;;8.66;51.83
50852;BME280;43953;45.508;-122.806;2023-02-03T02:55:01;100976.13;;;8.66;51.94
50852;BME280;43953;45.508;-122.806;2023-02-03T02:55:36;100977.16;;;8.65;52.06
50852;BME280;43953;45.508;-122.806;2023-02-03T02:56:12;100977.34;;;8.64;51.84
50852;BME280;43953;45.508;-122.806;2023-02-03T02:56:50;100980.66;;;8.66;51.86
50852;BME280;43953;45.508;-122.806;2023-02-03T02:57:25;100978.81;;;8.66;51.64
50852;BME280;43953;45.508;-122.806;2023-02-03T02:58:01;100982.53;;;8.65;51.90
50852;BME280;43953;45.508;-122.806;2023-02-03T02:58:36;100980.50;;;8.68;52.00
50852;BME280;43953;45.508;-122.806;2023-02-03T02:59:10;100971.41;;;8.69;52.03
50852;BME280;43953;45.508;-122.806;2023-02-03T02:59:42;100972.22;;;8.69;52.00
50852;BME280;43953;45.508;-122.806;2023-02-03T03:00:13;100973.09;;;8.70;52.28
50852;BME280;43953;45.508;-122.806;2023-02-03T03:00:45;100964.00;;;8.71;52.10
50852;BME280;43953;45.508;-122.806;2023-02-03T03:01:18;100967.72;;;8.70;52.06
50852;BME280;43953;45.508;-122.806;2023-02-03T03:01:50;100966.69;;;8.71;52.29
50852;BME280;43953;45.508;-122.806;2023-02-03T03:02:25;100965.03;;;8.70;52.15
50852;BME280;43953;45.508;-122.806;2023-02-03T03:03:10;100953.66;;;8.68;52.17
50852;BME280;43953;45.508;-122.806;2023-02-03T03:03:42;100959.84;;;8.68;52.16
50852;BME280;43953;45.508;-122.806;2023-02-03T03:04:18;100966.03;;;8.69;52.06
50852;BME280;43953;45.508;-122.806;2023-02-03T03:04:52;100954.47;;;8.68;52.13
50852;BME280;43953;45.508;-122.806;2023-02-03T03:05:25;100958.81;;;8.69;52.11
50852;BME280;43953;45.508;-122.806;2023-02-03T03:06:07;100969.38;;;8.71;51.99
50852;BME280;43953;45.508;-122.806;2023-02-03T03:06:52;100966.88;;;8.69;52.07
50852;BME280;43953;45.508;-122.806;2023-02-03T03:07:27;100963.34;;;8.69;52.09
50852;BME280;43953;45.508;-122.806;2023-02-03T03:08:01;100963.19;;;8.70;52.33
50852;BME280;43953;45.508;-122.806;2023-02-03T03:09:15;100964.00;;;8.71;52.14
50852;BME280;43953;45.508;-122.806;2023-02-03T03:09:50;100957.97;;;8.69;52.22
50852;BME280;43953;45.508;-122.806;2023-02-03T03:10:24;100956.34;;;8.68;52.41
50852;BME280;43953;45.508;-122.806;2023-02-03T03:10:59;100951.97;;;8.66;52.41
50852;BME280;43953;45.508;-122.806;2023-02-03T03:11:37;100952.81;;;8.67;52.00
50852;BME280;43953;45.508;-122.806;2023-02-03T03:12:47;100952.34;;;8.63;52.06
50852;BME280;43953;45.508;-122.806;2023-02-03T03:13:31;100955.22;;;8.62;52.44
50852;BME280;43953;45.508;-122.806;2023-02-03T03:14:05;100955.41;;;8.60;52.28
50852;BME280;43953;45.508;-122.806;2023-02-03T03:14:42;100951.91;;;8.60;52.39
50852;BME280;43953;45.508;-122.806;2023-02-03T03:15:20;100959.94;;;8.60;52.51
50852;BME280;43953;45.508;-122.806;2023-02-03T03:15:54;100953.75;;;8.59;52.47
50852;BME280;43953;45.508;-122.806;2023-02-03T03:16:28;100952.72;;;8.60;52.38
50852;BME280;43953;45.508;-122.806;2023-02-03T03:17:06;100952.72;;;8.60;52.57
50852;BME280;43953;45.508;-122.806;2023-02-03T03:17:42;100950.03;;;8.60;52.31